Latest Weather Observations for Esperance Airport

IDW60801

Issued at 3:35 am WST Saturday 1 November 2014 (issued every 30 minutes, with the page automatically refreshed every 10 minutes)

About weather observations | Map of weather stations | Latest weather observations for WA | Other Formats
Station Details ID: 009542 Name: ESPERANCE AERO Lat: -33.68 Lon: 121.83 Height: 142.0 m
Data from the previous 72 hours. | See also: Recent months at Esperance Airport
Date/Time
WST
Temp
°C
App
Temp
°C
Dew
Point
Rel
Hum
%
Delta-T
°C
Wind Press
QNH
hPa
Press
MSL
hPa
Rain
since 9 am
mm
Dir
 
Spd
km/h
Gust
km/h
Spd
kts
Gust
kts
01/03:30am 8.3 5.9 7.2 93 0.5 N 9 11 5 6 1021.4 1021.3 0.0
01/03:00am 7.5 5.3 6.4 93 0.5 N 7 9 4 5 1021.4 1021.3 0.0
01/02:30am 7.9 7.1 6.4 90 0.7 CALM 0 0 0 0 1021.3 1021.2 0.0
01/02:00am 9.4 8.7 7.0 85 1.1 CALM 0 0 0 0 1021.2 1021.1 0.0
01/01:30am 10.1 9.6 7.7 85 1.2 CALM 0 0 0 0 1021.4 1021.3 0.0
01/01:00am 10.0 9.5 7.9 87 1.0 CALM 0 0 0 0 1021.3 1021.2 0.0
01/12:30am 10.5 10.3 8.9 90 0.8 CALM 0 0 0 0 1021.2 1021.1 0.0
01/12:00am 9.5 9.1 8.3 92 0.6 NW 0 0 0 0 1021.2 1021.1 0.0
 
Date/Time
WST
Temp
°C
App
Temp
°C
Dew
Point
Rel
Hum
%
Delta-T
°C
Wind Press
QNH
hPa
Press
MSL
hPa
Rain
since 9 am
mm
Dir
 
Spd
km/h
Gust
km/h
Spd
kts
Gust
kts
31/11:30pm 10.6 10.4 8.9 89 0.8 CALM 0 0 0 0 1021.5 1021.4 0.0
31/11:00pm 11.0 9.6 7.3 78 1.8 S 4 6 2 3 1021.6 1021.5 0.0
31/10:30pm 11.4 9.8 8.1 80 1.6 S 6 7 3 4 1021.6 1021.5 0.0
31/10:00pm 10.3 10.0 8.6 89 0.8 CALM 0 0 0 0 1021.6 1021.5 0.0
31/09:30pm 11.0 9.3 7.5 79 1.7 SSE 6 7 3 4 1021.6 1021.5 0.0
31/09:00pm 10.9 9.0 7.6 80 1.6 S 7 9 4 5 1021.8 1021.7 0.0
31/08:30pm 11.2 9.9 7.7 79 1.7 SSW 4 7 2 4 1021.7 1021.6 0.0
31/08:00pm 12.0 9.9 8.1 77 1.9 SW 9 13 5 7 1021.3 1021.2 0.0
31/07:30pm 11.5 9.6 7.6 77 1.9 SW 7 9 4 5 1021.1 1021.0 0.0
31/07:00pm 12.1 9.4 7.2 72 2.4 SSW 11 13 6 7 1020.9 1020.8 0.0
31/06:30pm 12.8 9.6 7.0 68 2.8 SSW 13 19 7 10 1020.6 1020.5 0.0
31/06:00pm 13.8 9.2 6.7 62 3.4 SSW 20 28 11 15 1020.1 1019.9 0.0
31/05:30pm 14.8 9.8 6.6 58 4.0 SSW 22 32 12 17 1019.7 1019.5 0.0
31/05:00pm 15.8 10.9 7.0 56 4.4 S 22 28 12 15 1019.0 1018.8 0.0
31/04:30pm 15.6 10.4 7.1 57 4.2 S 24 32 13 17 1018.6 1018.4 0.0
31/04:00pm 16.5 10.6 7.7 56 4.4 S 28 33 15 18 1018.3 1018.1 0.0
31/03:30pm 17.1 10.7 5.4 46 5.7 S 28 35 15 19 1017.9 1017.7 0.0
31/03:00pm 17.7 11.9 8.0 53 5.0 S 28 37 15 20 1017.5 1017.3 0.0
31/02:30pm 16.6 10.4 6.1 50 5.1 S 28 37 15 20 1017.2 1017.0 0.0
31/02:00pm 17.8 11.5 7.5 51 5.2 S 30 41 16 22 1017.1 1016.9 0.0
31/01:30pm 17.9 11.3 8.5 54 4.9 S 33 44 18 24 1017.1 1016.9 0.0
31/01:00pm 16.7 9.8 8.9 60 4.0 S 35 44 19 24 1017.1 1016.9 0.0
31/12:57pm 16.7 9.6 9.4 62 3.8 S 37 44 20 24 1017.0 1016.8 0.0
31/12:30pm 18.1 12.4 9.7 58 4.5 SSW 30 41 16 22 1016.8 1016.6 0.0
31/12:00pm 18.9 13.2 11.2 61 4.2 S 32 41 17 22 1016.6 1016.4 0.0
31/11:30am 18.0 11.8 10.1 60 4.2 S 33 46 18 25 1016.2 1016.1 0.0
31/11:00am 18.5 12.0 10.3 59 4.4 SSW 35 46 19 25 1015.8 1015.7 0.0
31/10:30am 17.3 10.6 9.5 60 4.1 SSW 35 46 19 25 1015.9 1015.8 0.0
31/10:00am 17.8 11.5 9.7 59 4.3 SSW 33 44 18 24 1015.7 1015.6 0.0
31/09:30am 17.4 10.2 9.1 58 4.3 SSW 37 52 20 28 1015.3 1015.2 0.0
31/09:00am 16.8 8.4 9.0 60 4.1 SSW 43 54 23 29 1014.8 1014.7 2.8
31/08:30am 16.3 9.1 10.6 69 3.0 SSW 39 50 21 27 1014.4 1014.3 2.8
31/08:00am 15.6 10.5 11.8 78 2.1 SSW 30 50 16 27 1014.2 1014.0 2.8
31/07:58am 15.6 10.5 11.8 78 2.1 SSW 30 50 16 27 1014.1 1013.9 2.8
31/07:30am 15.0 10.9 12.7 86 1.3 SW 26 33 14 18 1013.7 1013.5 2.8
31/07:00am 14.0 11.2 13.1 94 0.5 SW 20 32 11 17 1013.4 1013.2 2.8
31/06:48am 13.5 10.8 13.0 97 0.3 SW 19 26 10 14 1013.3 1013.1 2.8
31/06:43am 13.4 10.6 13.1 98 0.2 SW 20 30 11 16 1013.3 1013.1 2.8
31/06:30am 13.1 7.7 12.9 99 0.1 SSW 33 54 18 29 1013.1 1012.9 2.8
31/06:23am 13.3 9.0 13.1 99 0.1 SSW 28 46 15 25 1013.1 1012.9 2.6
31/06:02am 13.7 10.1 13.2 97 0.3 WSW 24 33 13 18 1012.8 1012.6 2.0
31/06:00am 13.9 10.4 13.4 97 0.3 WSW 24 33 13 18 1012.8 1012.6 1.8
31/05:44am 14.7 9.5 12.9 89 1.0 W 32 43 17 23 1012.3 1012.1 0.0
31/05:30am 14.9 12.1 13.3 90 0.9 WNW 20 26 11 14 1011.9 1011.7 0.0
31/05:00am 14.3 12.4 12.9 91 0.8 WNW 15 19 8 10 1011.5 1011.3 0.0
31/04:30am 14.8 13.3 13.0 89 1.0 WNW 13 17 7 9 1011.2 1011.0 0.0
31/04:00am 14.6 13.5 13.0 90 0.9 NW 11 13 6 7 1010.8 1010.6 0.0
31/03:30am 14.6 13.0 12.8 89 1.0 NNW 13 17 7 9 1010.6 1010.4 0.0
31/03:00am 15.1 14.1 13.3 89 1.0 NNW 11 13 6 7 1010.4 1010.2 0.0
31/02:30am 15.0 13.9 13.2 89 1.0 NNW 11 15 6 8 1010.3 1010.1 0.0
31/02:00am 14.9 14.2 13.3 90 0.9 NW 9 11 5 6 1010.4 1010.2 0.0
31/01:30am 14.9 14.5 13.1 89 1.0 NW 7 9 4 5 1010.4 1010.2 0.0
31/01:00am 15.0 14.7 13.2 89 1.0 NW 7 9 4 5 1010.4 1010.2 0.0
31/12:30am 14.8 14.6 13.0 89 1.0 WNW 6 7 3 4 1010.6 1010.4 0.0
31/12:00am 14.8 14.5 12.8 88 1.1 WNW 6 6 3 3 1011.1 1010.9 0.0
 
Date/Time
WST
Temp
°C
App
Temp
°C
Dew
Point
Rel
Hum
%
Delta-T
°C
Wind Press
QNH
hPa
Press
MSL
hPa
Rain
since 9 am
mm
Dir
 
Spd
km/h
Gust
km/h
Spd
kts
Gust
kts
30/11:30pm 14.7 14.4 12.6 87 1.2 W 6 7 3 4 1011.3 1011.1 0.0
30/11:00pm 14.8 14.8 12.5 86 1.3 WSW 4 6 2 3 1011.1 1010.9 0.0
30/10:30pm 14.5 14.1 12.5 88 1.1 S 6 7 3 4 1011.2 1011.0 0.0
30/10:00pm 13.8 13.2 12.4 91 0.8 S 7 9 4 5 1011.0 1010.8 0.0
30/09:30pm 12.9 12.4 12.0 94 0.5 S 6 7 3 4 1010.8 1010.6 0.0
30/09:00pm 13.3 11.8 12.0 92 0.7 S 11 13 6 7 1010.7 1010.5 0.0
30/08:30pm 13.9 12.6 12.5 91 0.8 SSE 11 13 6 7 1010.4 1010.2 0.0
30/08:00pm 13.9 12.9 12.3 90 0.9 S 9 13 5 7 1010.3 1010.1 0.0
30/07:30pm 14.6 13.7 12.6 88 1.1 SSE 9 13 5 7 1010.0 1009.8 0.0
30/07:00pm 14.9 13.3 12.8 87 1.2 SSE 13 17 7 9 1009.8 1009.6 0.0
30/06:30pm 15.3 12.9 12.6 84 1.5 SE 17 19 9 10 1009.5 1009.3 0.0
30/06:00pm 16.0 13.2 12.6 80 1.9 SE 19 24 10 13 1009.2 1009.0 0.0
30/05:30pm 16.7 13.4 12.7 77 2.2 SE 22 28 12 15 1009.3 1009.1 0.0
30/05:00pm 17.7 14.5 13.0 74 2.7 SSE 22 32 12 17 1008.8 1008.7 0.0
30/04:30pm 18.7 15.2 13.3 71 3.1 SSE 24 33 13 18 1008.8 1008.7 0.0
30/04:00pm 19.1 15.6 13.3 69 3.3 SSE 24 28 13 15 1009.0 1008.9 0.0
30/03:30pm 19.7 16.3 13.6 68 3.5 S 24 32 13 17 1009.3 1009.1 0.0
30/03:00pm 19.6 15.8 13.5 68 3.5 SSE 26 32 14 17 1009.5 1009.3 0.0
30/02:30pm 19.8 16.8 13.7 68 3.5 SSE 22 32 12 17 1009.6 1009.4 0.0
30/02:00pm 21.4 19.4 15.0 67 3.8 SE 19 26 10 14 1009.8 1009.6 0.0
30/01:30pm 20.8 17.7 14.5 67 3.7 SSE 24 32 13 17 1010.0 1009.8 0.0
30/01:00pm 21.3 18.7 14.9 67 3.8 SE 22 32 12 17 1010.3 1010.1 0.0
30/12:30pm 22.0 20.5 15.4 66 4.0 ESE 17 28 9 15 1010.7 1010.5 0.0
30/12:00pm 21.2 18.7 14.1 64 4.2 S 20 28 11 15 1011.0 1010.8 0.0
30/11:30am 21.9 21.4 15.0 65 4.1 SW 11 19 6 10 1011.4 1011.2 0.0
30/11:00am 20.7 19.1 13.9 65 4.0 SSW 15 28 8 15 1011.8 1011.6 0.0
30/10:30am 20.0 18.1 14.1 69 3.4 SSW 17 24 9 13 1012.2 1012.0 0.0
30/10:00am 19.1 16.5 13.9 72 3.0 S 20 32 11 17 1012.7 1012.5 0.0
30/09:30am 19.2 17.1 14.7 75 2.6 S 19 28 10 15 1012.9 1012.7 0.0
30/09:00am 18.7 16.8 14.2 75 2.6 SSW 17 28 9 15 1013.4 1013.2 0.0
30/08:30am 19.6 17.9 14.8 74 2.8 S 17 20 9 11 1012.6 1012.4 0.0
30/08:00am 17.9 16.6 13.6 76 2.5 S 13 19 7 10 1012.8 1012.6 0.0
30/07:30am 17.6 18.4 13.7 78 2.2 WSW 2 7 1 4 1013.3 1013.1 0.0
30/07:00am 16.4 16.3 13.9 85 1.4 SW 7 9 4 5 1013.7 1013.5 0.0
30/06:30am 15.8 15.0 14.0 89 1.0 W 11 15 6 8 1014.3 1014.1 0.0
30/06:00am 16.0 15.4 14.5 91 0.9 WSW 11 13 6 7 1013.8 1013.6 0.0
30/05:30am 15.7 15.4 14.4 92 0.7 SW 9 11 5 6 1013.2 1013.0 0.0
30/05:00am 15.6 14.9 14.3 92 0.7 S 11 15 6 8 1012.7 1012.5 0.0
30/04:30am 15.7 15.0 14.4 92 0.7 S 11 13 6 7 1012.7 1012.5 0.0
30/04:00am 15.8 14.8 14.7 93 0.6 S 13 17 7 9 1012.6 1012.4 0.0
30/03:30am 15.7 15.1 14.7 94 0.6 S 11 15 6 8 1012.5 1012.3 0.0
30/03:00am 15.9 15.4 14.9 94 0.6 SSW 11 15 6 8 1013.1 1012.9 0.0
30/02:30am 16.0 16.0 15.2 95 0.5 SSW 9 13 5 7 1012.8 1012.6 0.0
30/02:00am 16.1 15.7 15.3 95 0.5 S 11 15 6 8 1012.7 1012.5 0.0
30/01:30am 16.1 15.1 15.5 96 0.4 S 15 20 8 11 1012.7 1012.5 0.0
30/01:11am 16.0 14.5 15.4 96 0.4 S 17 22 9 12 1012.8 1012.6 0.0
30/01:00am 16.0 14.5 15.4 96 0.4 S 17 20 9 11 1012.7 1012.5 0.0
30/12:30am 16.2 14.9 15.7 97 0.3 S 17 24 9 13 1012.9 1012.7 0.0
30/12:21am 16.1 15.1 15.6 97 0.3 S 15 20 8 11 1012.8 1012.6 0.0
30/12:00am 16.2 14.8 15.6 96 0.4 S 17 24 9 13 1012.6 1012.4 0.0
 
Date/Time
WST
Temp
°C
App
Temp
°C
Dew
Point
Rel
Hum
%
Delta-T
°C
Wind Press
QNH
hPa
Press
MSL
hPa
Rain
since 9 am
mm
Dir
 
Spd
km/h
Gust
km/h
Spd
kts
Gust
kts
29/11:35pm 16.4 15.5 15.8 96 0.4 S 15 20 8 11 1013.3 1013.1 0.0
29/11:30pm 16.4 15.1 15.8 96 0.4 S 17 20 9 11 1013.3 1013.1 0.0
29/11:22pm 16.5 15.2 15.9 96 0.4 S 17 19 9 10 1013.4 1013.2 0.0
29/11:00pm 16.6 16.1 16.0 96 0.4 SSW 13 19 7 10 1013.8 1013.6 0.0
29/10:30pm 16.6 15.4 16.1 97 0.3 SSE 17 22 9 12 1013.1 1012.9 0.0
29/10:18pm 16.6 16.2 16.1 97 0.3 SSE 13 19 7 10 1013.6 1013.4 0.0
29/10:00pm 16.7 16.3 16.2 97 0.3 S 13 15 7 8 1014.0 1013.8 0.0
29/09:46pm 16.6 16.9 16.1 97 0.3 S 9 13 5 7 1013.9 1013.7 0.0
29/09:30pm 16.5 16.4 16.0 97 0.3 SSE 11 15 6 8 1013.8 1013.6 0.0
29/09:15pm 16.5 16.4 16.0 97 0.3 S 11 15 6 8 1014.0 1013.8 0.0
29/09:00pm 16.6 16.5 16.1 97 0.3 S 11 15 6 8 1014.1 1013.9 0.0
29/08:30pm 16.6 16.1 16.0 96 0.4 SE 13 17 7 9 1014.1 1013.9 0.0
29/08:00pm 16.9 16.5 16.1 95 0.5 SE 13 17 7 9 1014.2 1014.0 0.0
29/07:30pm 17.0 15.7 15.9 93 0.7 SSE 17 26 9 14 1014.2 1014.0 0.0
29/07:18pm 17.1 16.2 15.8 92 0.8 SSE 15 20 8 11 1014.0 1013.8 0.0
29/07:00pm 16.9 15.5 15.6 92 0.8 SSE 17 20 9 11 1014.2 1014.0 0.0
29/06:35pm 17.1 14.8 15.6 91 0.9 SSE 22 28 12 15 1013.8 1013.6 0.0
29/06:30pm 17.1 15.1 15.6 91 0.9 SSE 20 26 11 14 1013.9 1013.7 0.0
29/06:00pm 17.4 15.8 15.9 91 0.9 SSE 19 24 10 13 1013.6 1013.4 0.0
29/05:30pm 17.6 15.7 15.8 89 1.1 SSE 20 28 11 15 1013.5 1013.3 0.0
29/05:00pm 17.9 16.1 15.9 88 1.2 SSE 20 28 11 15 1013.2 1013.0 0.0
29/04:30pm 18.4 15.8 15.8 85 1.5 SSE 24 32 13 17 1012.9 1012.7 0.0
29/04:20pm 18.7 16.1 15.9 84 1.7 SSE 24 33 13 18 1012.8 1012.6 0.0
29/04:00pm 20.1 17.0 15.7 76 2.6 SSE 26 35 14 19 1012.7 1012.5 0.0
29/03:30pm 21.0 17.3 16.0 73 3.0 S 30 37 16 20 1012.7 1012.5 0.0
29/03:00pm 21.6 18.6 15.9 70 3.4 S 26 33 14 18 1012.6 1012.4 0.0
29/02:30pm 20.9 17.0 14.5 67 3.8 SSW 28 35 15 19 1012.8 1012.6 0.0
29/02:00pm 21.6 18.0 13.0 58 4.9 SSW 24 30 13 16 1013.0 1012.8 0.0
29/01:30pm 22.8 19.8 12.7 53 5.8 SSW 20 28 11 15 1012.9 1012.7 0.0
29/01:00pm 21.8 19.3 14.2 62 4.5 S 20 26 11 14 1013.1 1012.9 0.0
29/12:30pm 22.9 20.2 14.7 60 4.9 S 22 28 12 15 1012.8 1012.6 0.0
29/12:00pm 26.8 26.7 14.9 48 7.2 SSW 9 28 5 15 1012.7 1012.5 0.0
29/11:30am 27.7 26.1 11.7 37 9.3 SSW 11 17 6 9 1012.9 1012.7 0.0
29/11:00am 27.3 26.0 12.5 40 8.7 SW 11 15 6 8 1013.3 1013.1 0.0
29/10:30am 27.8 27.0 11.8 37 9.3 N 7 17 4 9 1013.5 1013.3 0.0
29/10:00am 25.5 23.9 11.7 42 7.9 NW 11 15 6 8 1013.8 1013.6 0.0
29/09:30am 24.9 24.0 12.5 46 7.2 NE 9 20 5 11 1014.1 1013.9 0.0
29/09:00am 22.7 22.9 12.9 54 5.7 NE 4 11 2 6 1014.5 1014.4 0.0
29/08:30am 21.6 21.2 14.0 62 4.4 ESE 9 15 5 8 1014.4 1014.3 0.0
29/08:00am 19.7 18.9 14.1 70 3.3 E 11 13 6 7 1014.4 1014.3 0.0
29/07:30am 18.2 17.6 13.5 74 2.7 E 9 15 5 8 1014.8 1014.7 0.0
29/07:00am 17.6 16.3 13.7 78 2.2 ESE 13 19 7 10 1014.7 1014.6 0.0
29/06:30am 15.3 13.8 13.1 87 1.2 E 13 17 7 9 1014.6 1014.5 0.0
29/06:00am 14.5 13.0 13.2 92 0.7 ESE 13 17 7 9 1014.7 1014.6 0.0
29/05:30am 13.5 11.9 12.7 95 0.4 ESE 13 15 7 8 1014.5 1014.4 0.0
29/05:00am 13.2 11.5 12.6 96 0.3 ESE 13 17 7 9 1014.3 1014.1 0.0
29/04:30am 13.4 11.4 12.8 96 0.3 ESE 15 17 8 9 1014.2 1014.0 0.0
29/04:00am 13.3 11.7 12.7 96 0.3 SE 13 15 7 8 1014.3 1014.1 0.0

Other Formats:

Comma delimited format used in spreadsheet applications
http://www.bom.gov.au/fwo/IDW60801/IDW60801.95638.axf

JavaScript Object Notation format (JSON) in row-major order
http://www.bom.gov.au/fwo/IDW60801/IDW60801.95638.json